首页
METAR-TAF:

METAR-TAF

机场 :

Penn Valley Airport

Selinsgrove, 宾夕法尼亚州, 美国

纬度: 40-49-09N, 经度: 076-51-58W, 海拔: 137米

当前天气观测

该预报发布于27分钟前的04:21 UTC
静风
温度 7°C
湿度 93%
气压 1012 hPa
能見度: 2.4公里
少量云层高于700英尺
阴天层高于1100英尺
轻雾

METAR: KSEG 260421Z AUTO 00000KT 1 1/2SM BR FEW007 OVC011 07/06 A2987 RMK AO2 T00670061

时间: 23:48 (04:48 UTC)


TAF: 丢失

超过4000个机场的气象观测和天气预报(METAR&TAF报告)。

可查询的气象台以黄色和红色小点在地图上表示。

将鼠标移到小点上方,可查看气象台名称。

然后点击查看天气观测和预报。

如需切换地图:点击带黑十字的绿色按钮放大地图;点击带横线的绿色按钮缩小地图;或者点击绿色箭头查看邻近地区的地图。


METAR-TAF: